sensor_id;sensor_type;location;lat;lon;timestamp;temperature;humidity
30244;DHT22;64022;53.652;9.792;2023-04-24T00:01:38;22.60;51.70
30244;DHT22;64022;53.652;9.792;2023-04-24T00:04:05;22.60;51.80
30244;DHT22;64022;53.652;9.792;2023-04-24T00:06:32;22.50;51.70
30244;DHT22;64022;53.652;9.792;2023-04-24T00:09:03;22.60;51.80
30244;DHT22;64022;53.652;9.792;2023-04-24T00:11:29;22.60;51.80
30244;DHT22;64022;53.652;9.792;2023-04-24T00:13:55;22.50;51.70
30244;DHT22;64022;53.652;9.792;2023-04-24T00:16:21;22.50;51.70
30244;DHT22;64022;53.652;9.792;2023-04-24T00:18:47;22.60;51.80
30244;DHT22;64022;53.652;9.792;2023-04-24T00:21:13;22.50;51.70
30244;DHT22;64022;53.652;9.792;2023-04-24T00:23:40;22.60;51.80
30244;DHT22;64022;53.652;9.792;2023-04-24T00:26:05;22.50;51.70
30244;DHT22;64022;53.652;9.792;2023-04-24T00:28:31;22.60;51.80
30244;DHT22;64022;53.652;9.792;2023-04-24T00:30:57;22.50;51.70
30244;DHT22;64022;53.652;9.792;2023-04-24T00:33:22;22.60;51.80
30244;DHT22;64022;53.652;9.792;2023-04-24T00:35:48;22.60;51.80
30244;DHT22;64022;53.652;9.792;2023-04-24T00:38:13;22.60;51.80
30244;DHT22;64022;53.652;9.792;2023-04-24T00:40:39;22.50;51.80
30244;DHT22;64022;53.652;9.792;2023-04-24T00:43:05;22.60;51.80
30244;DHT22;64022;53.652;9.792;2023-04-24T00:45:30;22.50;51.70
30244;DHT22;64022;53.652;9.792;2023-04-24T00:47:57;22.60;51.80
30244;DHT22;64022;53.652;9.792;2023-04-24T00:50:23;22.60;51.80
30244;DHT22;64022;53.652;9.792;2023-04-24T00:52:49;22.60;51.80
30244;DHT22;64022;53.652;9.792;2023-04-24T00:55:16;22.60;51.80
30244;DHT22;64022;53.652;9.792;2023-04-24T00:57:41;22.60;51.80
30244;DHT22;64022;53.652;9.792;2023-04-24T01:00:07;22.50;51.80
30244;DHT22;64022;53.652;9.792;2023-04-24T01:02:37;22.50;51.80
30244;DHT22;64022;53.652;9.792;2023-04-24T01:05:06;22.60;51.90
30244;DHT22;64022;53.652;9.792;2023-04-24T01:07:32;22.50;51.80
30244;DHT22;64022;53.652;9.792;2023-04-24T01:09:58;22.60;51.80
30244;DHT22;64022;53.652;9.792;2023-04-24T01:12:24;22.60;51.90
30244;DHT22;64022;53.652;9.792;2023-04-24T01:14:49;22.50;51.80
30244;DHT22;64022;53.652;9.792;2023-04-24T01:17:15;22.50;51.80
30244;DHT22;64022;53.652;9.792;2023-04-24T01:19:40;22.50;51.80
30244;DHT22;64022;53.652;9.792;2023-04-24T01:22:15;22.50;52.30
30244;DHT22;64022;53.652;9.792;2023-04-24T01:24:43;22.50;51.70
30244;DHT22;64022;53.652;9.792;2023-04-24T01:27:10;22.50;51.80
30244;DHT22;64022;53.652;9.792;2023-04-24T01:29:36;22.50;51.80
30244;DHT22;64022;53.652;9.792;2023-04-24T01:32:03;22.50;51.80
30244;DHT22;64022;53.652;9.792;2023-04-24T01:34:29;22.50;51.80
30244;DHT22;64022;53.652;9.792;2023-04-24T01:36:55;22.60;51.90
30244;DHT22;64022;53.652;9.792;2023-04-24T01:39:21;22.60;51.90
30244;DHT22;64022;53.652;9.792;2023-04-24T01:41:48;22.50;51.80
30244;DHT22;64022;53.652;9.792;2023-04-24T01:44:15;22.50;51.60
30244;DHT22;64022;53.652;9.792;2023-04-24T01:46:41;22.50;51.90
30244;DHT22;64022;53.652;9.792;2023-04-24T01:49:06;22.50;51.90
30244;DHT22;64022;53.652;9.792;2023-04-24T01:51:32;22.50;51.90
30244;DHT22;64022;53.652;9.792;2023-04-24T01:53:57;22.50;51.90
30244;DHT22;64022;53.652;9.792;2023-04-24T01:56:23;22.50;51.90
30244;DHT22;64022;53.652;9.792;2023-04-24T01:58:50;22.50;51.90
30244;DHT22;64022;53.652;9.792;2023-04-24T02:01:19;22.50;51.90
30244;DHT22;64022;53.652;9.792;2023-04-24T02:03:45;22.50;51.90
30244;DHT22;64022;53.652;9.792;2023-04-24T02:06:11;22.50;51.90
30244;DHT22;64022;53.652;9.792;2023-04-24T02:08:36;22.50;51.90
30244;DHT22;64022;53.652;9.792;2023-04-24T02:11:02;22.50;51.90
30244;DHT22;64022;53.652;9.792;2023-04-24T02:13:28;22.50;51.90
30244;DHT22;64022;53.652;9.792;2023-04-24T02:15:53;22.50;51.90
30244;DHT22;64022;53.652;9.792;2023-04-24T02:18:19;22.50;51.90
30244;DHT22;64022;53.652;9.792;2023-04-24T02:20:45;22.50;51.90
30244;DHT22;64022;53.652;9.792;2023-04-24T02:23:10;22.50;52.40
30244;DHT22;64022;53.652;9.792;2023-04-24T02:25:36;22.50;51.90
30244;DHT22;64022;53.652;9.792;2023-04-24T02:28:02;22.50;51.90
30244;DHT22;64022;53.652;9.792;2023-04-24T02:30:28;22.50;51.90
30244;DHT22;64022;53.652;9.792;2023-04-24T02:32:54;22.50;51.90
30244;DHT22;64022;53.652;9.792;2023-04-24T02:35:20;22.50;51.90
30244;DHT22;64022;53.652;9.792;2023-04-24T02:37:46;22.50;51.90
30244;DHT22;64022;53.652;9.792;2023-04-24T02:40:11;22.50;51.90
30244;DHT22;64022;53.652;9.792;2023-04-24T02:42:37;22.50;51.90
30244;DHT22;64022;53.652;9.792;2023-04-24T02:45:03;22.50;51.90
30244;DHT22;64022;53.652;9.792;2023-04-24T02:47:28;22.50;52.00
30244;DHT22;64022;53.652;9.792;2023-04-24T02:49:54;22.50;51.90
30244;DHT22;64022;53.652;9.792;2023-04-24T02:52:20;22.50;52.00
30244;DHT22;64022;53.652;9.792;2023-04-24T02:54:45;22.50;51.90
30244;DHT22;64022;53.652;9.792;2023-04-24T02:57:11;22.50;52.00
30244;DHT22;64022;53.652;9.792;2023-04-24T02:59:36;22.50;52.00
30244;DHT22;64022;53.652;9.792;2023-04-24T03:02:02;22.50;52.00
30244;DHT22;64022;53.652;9.792;2023-04-24T03:04:27;22.50;52.00
30244;DHT22;64022;53.652;9.792;2023-04-24T03:06:53;22.50;52.00
30244;DHT22;64022;53.652;9.792;2023-04-24T03:09:22;22.50;52.00
30244;DHT22;64022;53.652;9.792;2023-04-24T03:11:48;22.50;52.00
30244;DHT22;64022;53.652;9.792;2023-04-24T03:14:15;22.50;52.00
30244;DHT22;64022;53.652;9.792;2023-04-24T03:16:40;22.50;52.00
30244;DHT22;64022;53.652;9.792;2023-04-24T03:19:06;22.50;52.00
30244;DHT22;64022;53.652;9.792;2023-04-24T03:21:32;22.50;52.00
30244;DHT22;64022;53.652;9.792;2023-04-24T03:23:57;22.50;52.10
30244;DHT22;64022;53.652;9.792;2023-04-24T03:26:23;22.50;52.10
30244;DHT22;64022;53.652;9.792;2023-04-24T03:28:48;22.50;52.10
30244;DHT22;64022;53.652;9.792;2023-04-24T03:31:14;22.50;52.10
30244;DHT22;64022;53.652;9.792;2023-04-24T03:33:40;22.50;52.10
30244;DHT22;64022;53.652;9.792;2023-04-24T03:36:06;22.50;52.20
30244;DHT22;64022;53.652;9.792;2023-04-24T03:38:32;22.50;52.20
30244;DHT22;64022;53.652;9.792;2023-04-24T03:40:57;22.50;52.20
30244;DHT22;64022;53.652;9.792;2023-04-24T03:43:23;22.50;52.20
30244;DHT22;64022;53.652;9.792;2023-04-24T03:45:48;22.50;52.20
30244;DHT22;64022;53.652;9.792;2023-04-24T03:48:14;22.50;52.30
30244;DHT22;64022;53.652;9.792;2023-04-24T03:50:39;22.50;52.30
30244;DHT22;64022;53.652;9.792;2023-04-24T03:53:05;22.50;52.30
30244;DHT22;64022;53.652;9.792;2023-04-24T03:55:30;22.50;52.30
30244;DHT22;64022;53.652;9.792;2023-04-24T03:57:56;22.50;52.30
30244;DHT22;64022;53.652;9.792;2023-04-24T04:00:22;22.50;52.30
30244;DHT22;64022;53.652;9.792;2023-04-24T04:02:47;22.50;52.30
30244;DHT22;64022;53.652;9.792;2023-04-24T04:05:13;22.50;52.40
30244;DHT22;64022;53.652;9.792;2023-04-24T04:07:38;22.50;52.40
30244;DHT22;64022;53.652;9.792;2023-04-24T04:10:04;22.50;52.40
30244;DHT22;64022;53.652;9.792;2023-04-24T04:12:32;22.50;52.40
30244;DHT22;64022;53.652;9.792;2023-04-24T04:14:57;22.50;52.40
30244;DHT22;64022;53.652;9.792;2023-04-24T04:17:23;22.50;52.40
30244;DHT22;64022;53.652;9.792;2023-04-24T04:19:48;22.50;52.50
30244;DHT22;64022;53.652;9.792;2023-04-24T04:22:14;22.50;52.40
30244;DHT22;64022;53.652;9.792;2023-04-24T04:24:40;22.50;52.50
30244;DHT22;64022;53.652;9.792;2023-04-24T04:27:06;22.50;52.50
30244;DHT22;64022;53.652;9.792;2023-04-24T04:29:32;22.50;52.50
30244;DHT22;64022;53.652;9.792;2023-04-24T04:31:58;22.50;52.50
30244;DHT22;64022;53.652;9.792;2023-04-24T04:34:24;22.50;52.50
30244;DHT22;64022;53.652;9.792;2023-04-24T04:36:49;22.50;52.50
30244;DHT22;64022;53.652;9.792;2023-04-24T04:39:15;22.50;52.50
30244;DHT22;64022;53.652;9.792;2023-04-24T04:41:42;22.50;52.50
30244;DHT22;64022;53.652;9.792;2023-04-24T04:44:07;22.50;52.50
30244;DHT22;64022;53.652;9.792;2023-04-24T04:46:34;22.50;52.50
30244;DHT22;64022;53.652;9.792;2023-04-24T04:49:00;22.50;52.60
30244;DHT22;64022;53.652;9.792;2023-04-24T04:51:26;22.50;52.60
30244;DHT22;64022;53.652;9.792;2023-04-24T04:53:52;22.50;52.60
30244;DHT22;64022;53.652;9.792;2023-04-24T04:56:18;22.50;52.60
30244;DHT22;64022;53.652;9.792;2023-04-24T04:58:44;22.50;52.60
30244;DHT22;64022;53.652;9.792;2023-04-24T05:01:09;22.50;52.50
30244;DHT22;64022;53.652;9.792;2023-04-24T05:03:35;22.50;52.60
30244;DHT22;64022;53.652;9.792;2023-04-24T05:06:01;22.50;52.60
30244;DHT22;64022;53.652;9.792;2023-04-24T05:08:27;22.50;52.60
30244;DHT22;64022;53.652;9.792;2023-04-24T05:10:53;22.50;52.60
30244;DHT22;64022;53.652;9.792;2023-04-24T05:13:19;22.50;52.60
30244;DHT22;64022;53.652;9.792;2023-04-24T05:15:45;22.50;52.60
30244;DHT22;64022;53.652;9.792;2023-04-24T05:18:10;22.50;52.60
30244;DHT22;64022;53.652;9.792;2023-04-24T05:20:36;22.50;52.60
30244;DHT22;64022;53.652;9.792;2023-04-24T05:23:01;22.50;52.60
30244;DHT22;64022;53.652;9.792;2023-04-24T05:25:27;22.50;52.60
30244;DHT22;64022;53.652;9.792;2023-04-24T05:27:52;22.50;52.60
30244;DHT22;64022;53.652;9.792;2023-04-24T05:30:19;22.50;52.60
30244;DHT22;64022;53.652;9.792;2023-04-24T05:32:45;22.50;52.60
30244;DHT22;64022;53.652;9.792;2023-04-24T05:35:11;22.50;52.60
30244;DHT22;64022;53.652;9.792;2023-04-24T05:37:37;22.50;52.60
30244;DHT22;64022;53.652;9.792;2023-04-24T05:40:03;22.50;52.70
30244;DHT22;64022;53.652;9.792;2023-04-24T05:42:30;22.50;52.60
30244;DHT22;64022;53.652;9.792;2023-04-24T05:44:56;22.50;52.70
30244;DHT22;64022;53.652;9.792;2023-04-24T05:47:21;22.50;52.70
30244;DHT22;64022;53.652;9.792;2023-04-24T05:49:47;22.50;52.70
30244;DHT22;64022;53.652;9.792;2023-04-24T05:52:13;22.50;52.70
30244;DHT22;64022;53.652;9.792;2023-04-24T05:54:39;22.50;52.80
30244;DHT22;64022;53.652;9.792;2023-04-24T05:57:04;22.50;52.80
30244;DHT22;64022;53.652;9.792;2023-04-24T05:59:34;22.50;52.70
30244;DHT22;64022;53.652;9.792;2023-04-24T06:01:59;22.50;52.70
30244;DHT22;64022;53.652;9.792;2023-04-24T06:04:25;22.50;52.70
30244;DHT22;64022;53.652;9.792;2023-04-24T06:06:51;22.50;52.70
30244;DHT22;64022;53.652;9.792;2023-04-24T06:09:24;22.50;52.80
30244;DHT22;64022;53.652;9.792;2023-04-24T06:11:50;22.60;52.90
30244;DHT22;64022;53.652;9.792;2023-04-24T06:14:18;22.60;52.90
30244;DHT22;64022;53.652;9.792;2023-04-24T06:16:44;22.60;52.90
30244;DHT22;64022;53.652;9.792;2023-04-24T06:19:09;22.60;53.00
30244;DHT22;64022;53.652;9.792;2023-04-24T06:21:35;22.60;53.00
30244;DHT22;64022;53.652;9.792;2023-04-24T06:24:01;22.60;53.00
30244;DHT22;64022;53.652;9.792;2023-04-24T06:26:28;22.60;53.00
30244;DHT22;64022;53.652;9.792;2023-04-24T06:28:53;22.60;53.10
30244;DHT22;64022;53.652;9.792;2023-04-24T06:31:19;22.60;53.10
30244;DHT22;64022;53.652;9.792;2023-04-24T06:33:45;22.60;53.10
30244;DHT22;64022;53.652;9.792;2023-04-24T06:36:12;22.60;53.10
30244;DHT22;64022;53.652;9.792;2023-04-24T06:38:37;22.60;53.10
30244;DHT22;64022;53.652;9.792;2023-04-24T06:41:03;22.60;53.70
30244;DHT22;64022;53.652;9.792;2023-04-24T06:43:30;22.60;53.20
30244;DHT22;64022;53.652;9.792;2023-04-24T06:45:57;22.60;53.20
30244;DHT22;64022;53.652;9.792;2023-04-24T06:48:23;22.60;53.20
30244;DHT22;64022;53.652;9.792;2023-04-24T06:50:49;22.60;53.20
30244;DHT22;64022;53.652;9.792;2023-04-24T06:53:15;22.60;53.20
30244;DHT22;64022;53.652;9.792;2023-04-24T06:55:40;22.60;53.30
30244;DHT22;64022;53.652;9.792;2023-04-24T06:58:06;22.60;53.30
30244;DHT22;64022;53.652;9.792;2023-04-24T07:00:32;22.60;53.30
30244;DHT22;64022;53.652;9.792;2023-04-24T07:02:57;22.60;53.30
30244;DHT22;64022;53.652;9.792;2023-04-24T07:05:23;22.60;53.30
30244;DHT22;64022;53.652;9.792;2023-04-24T07:07:49;22.60;53.30
30244;DHT22;64022;53.652;9.792;2023-04-24T07:10:15;22.60;53.30
30244;DHT22;64022;53.652;9.792;2023-04-24T07:12:41;22.60;53.30
30244;DHT22;64022;53.652;9.792;2023-04-24T07:15:07;22.60;53.30
30244;DHT22;64022;53.652;9.792;2023-04-24T07:17:34;22.60;53.40
30244;DHT22;64022;53.652;9.792;2023-04-24T07:20:00;22.70;53.50
30244;DHT22;64022;53.652;9.792;2023-04-24T07:22:26;22.60;53.40
30244;DHT22;64022;53.652;9.792;2023-04-24T07:24:51;22.70;53.50
30244;DHT22;64022;53.652;9.792;2023-04-24T07:27:17;22.70;53.50
30244;DHT22;64022;53.652;9.792;2023-04-24T07:29:43;22.70;53.60
30244;DHT22;64022;53.652;9.792;2023-04-24T07:32:08;22.70;53.50
30244;DHT22;64022;53.652;9.792;2023-04-24T07:34:34;22.70;53.60
30244;DHT22;64022;53.652;9.792;2023-04-24T07:37:00;22.70;53.60
30244;DHT22;64022;53.652;9.792;2023-04-24T07:39:27;22.70;53.60
30244;DHT22;64022;53.652;9.792;2023-04-24T07:41:53;22.70;53.60
30244;DHT22;64022;53.652;9.792;2023-04-24T07:44:18;22.70;53.60
30244;DHT22;64022;53.652;9.792;2023-04-24T07:46:44;22.70;53.60
30244;DHT22;64022;53.652;9.792;2023-04-24T07:49:10;22.70;53.60
30244;DHT22;64022;53.652;9.792;2023-04-24T07:51:35;22.70;53.60
30244;DHT22;64022;53.652;9.792;2023-04-24T07:54:04;22.70;53.60
30244;DHT22;64022;53.652;9.792;2023-04-24T07:56:31;22.70;53.60
30244;DHT22;64022;53.652;9.792;2023-04-24T07:58:57;22.70;53.60
30244;DHT22;64022;53.652;9.792;2023-04-24T08:01:22;22.70;53.60
30244;DHT22;64022;53.652;9.792;2023-04-24T08:03:48;22.70;53.60
30244;DHT22;64022;53.652;9.792;2023-04-24T08:06:13;22.70;53.60
30244;DHT22;64022;53.652;9.792;2023-04-24T08:08:39;22.70;53.60
30244;DHT22;64022;53.652;9.792;2023-04-24T08:11:05;22.70;53.60
30244;DHT22;64022;53.652;9.792;2023-04-24T08:13:30;22.70;53.60
30244;DHT22;64022;53.652;9.792;2023-04-24T08:15:56;22.70;53.60
30244;DHT22;64022;53.652;9.792;2023-04-24T08:18:22;22.70;53.60
30244;DHT22;64022;53.652;9.792;2023-04-24T08:20:47;22.70;53.60
30244;DHT22;64022;53.652;9.792;2023-04-24T08:23:13;22.70;53.60
30244;DHT22;64022;53.652;9.792;2023-04-24T08:25:39;22.70;53.60
30244;DHT22;64022;53.652;9.792;2023-04-24T08:28:06;22.70;53.60
30244;DHT22;64022;53.652;9.792;2023-04-24T08:30:32;22.70;53.60
30244;DHT22;64022;53.652;9.792;2023-04-24T08:32:57;22.70;53.60
30244;DHT22;64022;53.652;9.792;2023-04-24T08:35:23;22.70;53.60
30244;DHT22;64022;53.652;9.792;2023-04-24T08:37:49;22.70;53.60
30244;DHT22;64022;53.652;9.792;2023-04-24T08:40:16;22.70;53.60
30244;DHT22;64022;53.652;9.792;2023-04-24T08:42:42;22.70;53.60
30244;DHT22;64022;53.652;9.792;2023-04-24T08:45:12;22.70;53.60
30244;DHT22;64022;53.652;9.792;2023-04-24T08:47:39;22.70;53.60
30244;DHT22;64022;53.652;9.792;2023-04-24T08:50:06;22.70;53.60
30244;DHT22;64022;53.652;9.792;2023-04-24T08:52:33;22.60;53.60
30244;DHT22;64022;53.652;9.792;2023-04-24T08:55:00;22.70;53.60
30244;DHT22;64022;53.652;9.792;2023-04-24T08:57:26;22.70;53.60
30244;DHT22;64022;53.652;9.792;2023-04-24T08:59:53;22.70;53.60
30244;DHT22;64022;53.652;9.792;2023-04-24T09:02:21;22.70;53.60
30244;DHT22;64022;53.652;9.792;2023-04-24T09:04:46;22.70;53.60
30244;DHT22;64022;53.652;9.792;2023-04-24T09:07:12;22.70;53.30
30244;DHT22;64022;53.652;9.792;2023-04-24T09:09:40;22.60;53.60
30244;DHT22;64022;53.652;9.792;2023-04-24T09:12:07;22.70;53.60
30244;DHT22;64022;53.652;9.792;2023-04-24T09:14:34;22.70;53.60
30244;DHT22;64022;53.652;9.792;2023-04-24T09:17:02;22.70;53.60
30244;DHT22;64022;53.652;9.792;2023-04-24T09:19:27;22.60;53.60
30244;DHT22;64022;53.652;9.792;2023-04-24T09:21:53;22.70;53.60
30244;DHT22;64022;53.652;9.792;2023-04-24T09:24:20;22.70;53.60
30244;DHT22;64022;53.652;9.792;2023-04-24T09:26:48;22.70;53.60
30244;DHT22;64022;53.652;9.792;2023-04-24T09:29:16;22.70;53.60
30244;DHT22;64022;53.652;9.792;2023-04-24T09:31:42;22.60;53.50
30244;DHT22;64022;53.652;9.792;2023-04-24T09:34:08;22.70;53.60
30244;DHT22;64022;53.652;9.792;2023-04-24T09:36:39;22.70;53.60
30244;DHT22;64022;53.652;9.792;2023-04-24T09:39:10;22.70;53.60
30244;DHT22;64022;53.652;9.792;2023-04-24T09:41:45;22.70;53.60
30244;DHT22;64022;53.652;9.792;2023-04-24T09:44:13;22.70;54.10
30244;DHT22;64022;53.652;9.792;2023-04-24T09:46:41;22.70;53.60
30244;DHT22;64022;53.652;9.792;2023-04-24T09:49:15;22.70;53.60
30244;DHT22;64022;53.652;9.792;2023-04-24T09:51:43;22.70;53.60
30244;DHT22;64022;53.652;9.792;2023-04-24T09:54:20;22.70;53.60
30244;DHT22;64022;53.652;9.792;2023-04-24T09:56:50;22.70;53.50
30244;DHT22;64022;53.652;9.792;2023-04-24T09:59:19;22.70;53.60
30244;DHT22;64022;53.652;9.792;2023-04-24T10:01:46;22.60;53.50
30244;DHT22;64022;53.652;9.792;2023-04-24T10:04:22;22.70;53.60
30244;DHT22;64022;53.652;9.792;2023-04-24T10:06:50;22.70;54.10
30244;DHT22;64022;53.652;9.792;2023-04-24T10:09:17;22.70;53.60
30244;DHT22;64022;53.652;9.792;2023-04-24T10:11:44;22.70;53.60
30244;DHT22;64022;53.652;9.792;2023-04-24T10:14:14;22.70;53.60
30244;DHT22;64022;53.652;9.792;2023-04-24T10:16:40;22.60;53.50
30244;DHT22;64022;53.652;9.792;2023-04-24T10:19:07;22.70;53.60
30244;DHT22;64022;53.652;9.792;2023-04-24T10:21:33;22.70;53.60
30244;DHT22;64022;53.652;9.792;2023-04-24T10:23:59;22.70;53.60
30244;DHT22;64022;53.652;9.792;2023-04-24T10:26:29;22.70;53.60
30244;DHT22;64022;53.652;9.792;2023-04-24T10:28:57;22.70;53.50
30244;DHT22;64022;53.652;9.792;2023-04-24T10:31:23;22.70;53.50
30244;DHT22;64022;53.652;9.792;2023-04-24T10:33:50;22.70;53.50
30244;DHT22;64022;53.652;9.792;2023-04-24T10:36:17;22.70;53.60
30244;DHT22;64022;53.652;9.792;2023-04-24T10:38:45;22.70;53.60
30244;DHT22;64022;53.652;9.792;2023-04-24T10:41:13;22.70;53.60
30244;DHT22;64022;53.652;9.792;2023-04-24T10:43:45;22.70;53.60
30244;DHT22;64022;53.652;9.792;2023-04-24T10:46:18;22.70;53.60
30244;DHT22;64022;53.652;9.792;2023-04-24T10:48:55;22.70;53.60
30244;DHT22;64022;53.652;9.792;2023-04-24T10:51:22;22.70;53.60
30244;DHT22;64022;53.652;9.792;2023-04-24T10:53:50;22.70;53.60
30244;DHT22;64022;53.652;9.792;2023-04-24T10:56:16;22.70;53.50
30244;DHT22;64022;53.652;9.792;2023-04-24T10:58:45;22.70;53.50
30244;DHT22;64022;53.652;9.792;2023-04-24T11:04:01;22.70;53.50
30244;DHT22;64022;53.652;9.792;2023-04-24T11:06:36;22.70;53.30
30244;DHT22;64022;53.652;9.792;2023-04-24T11:09:09;22.70;53.60
30244;DHT22;64022;53.652;9.792;2023-04-24T11:11:38;22.70;53.60
30244;DHT22;64022;53.652;9.792;2023-04-24T11:14:09;22.70;53.60
30244;DHT22;64022;53.652;9.792;2023-04-24T11:16:56;22.70;53.60
30244;DHT22;64022;53.652;9.792;2023-04-24T11:19:25;22.70;53.60
30244;DHT22;64022;53.652;9.792;2023-04-24T11:22:00;22.70;53.60
30244;DHT22;64022;53.652;9.792;2023-04-24T11:37:40;22.70;53.60
30244;DHT22;64022;53.652;9.792;2023-04-24T11:40:08;22.70;53.50
30244;DHT22;64022;53.652;9.792;2023-04-24T11:42:38;22.70;53.60
30244;DHT22;64022;53.652;9.792;2023-04-24T11:47:44;22.70;53.50
30244;DHT22;64022;53.652;9.792;2023-04-24T11:50:11;22.70;53.50
30244;DHT22;64022;53.652;9.792;2023-04-24T11:52:39;22.70;53.30
30244;DHT22;64022;53.652;9.792;2023-04-24T11:55:29;22.70;53.60
30244;DHT22;64022;53.652;9.792;2023-04-24T11:57:57;22.70;53.60
30244;DHT22;64022;53.652;9.792;2023-04-24T12:00:25;22.70;53.60
30244;DHT22;64022;53.652;9.792;2023-04-24T12:02:59;22.70;53.60
30244;DHT22;64022;53.652;9.792;2023-04-24T12:05:28;22.70;53.60
30244;DHT22;64022;53.652;9.792;2023-04-24T12:07:56;22.70;53.60
30244;DHT22;64022;53.652;9.792;2023-04-24T12:10:23;22.70;53.50
30244;DHT22;64022;53.652;9.792;2023-04-24T12:12:50;22.70;53.50
30244;DHT22;64022;53.652;9.792;2023-04-24T12:15:17;22.70;53.50
30244;DHT22;64022;53.652;9.792;2023-04-24T12:17:43;22.70;53.50
30244;DHT22;64022;53.652;9.792;2023-04-24T12:20:10;22.60;53.20
30244;DHT22;64022;53.652;9.792;2023-04-24T12:22:50;22.60;53.50
30244;DHT22;64022;53.652;9.792;2023-04-24T12:25:17;22.70;53.60
30244;DHT22;64022;53.652;9.792;2023-04-24T12:27:44;22.70;53.60
30244;DHT22;64022;53.652;9.792;2023-04-24T12:30:15;22.70;53.60
30244;DHT22;64022;53.652;9.792;2023-04-24T12:32:47;22.70;53.50
30244;DHT22;64022;53.652;9.792;2023-04-24T12:35:14;22.70;53.50
30244;DHT22;64022;53.652;9.792;2023-04-24T12:37:43;22.70;53.50
30244;DHT22;64022;53.652;9.792;2023-04-24T12:40:10;22.70;53.50
30244;DHT22;64022;53.652;9.792;2023-04-24T12:42:45;22.70;53.50
30244;DHT22;64022;53.652;9.792;2023-04-24T12:45:12;22.70;53.50
30244;DHT22;64022;53.652;9.792;2023-04-24T12:47:39;22.70;53.50
30244;DHT22;64022;53.652;9.792;2023-04-24T12:50:05;22.70;53.50
30244;DHT22;64022;53.652;9.792;2023-04-24T12:52:31;22.70;53.30
30244;DHT22;64022;53.652;9.792;2023-04-24T12:54:58;22.70;53.50
30244;DHT22;64022;53.652;9.792;2023-04-24T12:57:24;22.70;53.60
30244;DHT22;64022;53.652;9.792;2023-04-24T12:59:50;22.70;53.60
30244;DHT22;64022;53.652;9.792;2023-04-24T13:02:16;22.70;53.50
30244;DHT22;64022;53.652;9.792;2023-04-24T13:04:46;22.70;53.50
30244;DHT22;64022;53.652;9.792;2023-04-24T13:07:12;22.70;53.50
30244;DHT22;64022;53.652;9.792;2023-04-24T13:09:39;22.70;53.50
30244;DHT22;64022;53.652;9.792;2023-04-24T13:12:05;22.70;53.50
30244;DHT22;64022;53.652;9.792;2023-04-24T13:14:31;22.70;53.50
30244;DHT22;64022;53.652;9.792;2023-04-24T13:16:56;22.70;53.50
30244;DHT22;64022;53.652;9.792;2023-04-24T13:19:24;22.70;53.50
30244;DHT22;64022;53.652;9.792;2023-04-24T13:21:51;22.70;53.50
30244;DHT22;64022;53.652;9.792;2023-04-24T13:24:16;22.70;53.50
30244;DHT22;64022;53.652;9.792;2023-04-24T13:26:42;22.70;53.50
30244;DHT22;64022;53.652;9.792;2023-04-24T13:29:08;22.70;53.50
30244;DHT22;64022;53.652;9.792;2023-04-24T13:31:33;22.70;53.50
30244;DHT22;64022;53.652;9.792;2023-04-24T13:33:59;22.70;53.50
30244;DHT22;64022;53.652;9.792;2023-04-24T13:36:25;22.70;53.50
30244;DHT22;64022;53.652;9.792;2023-04-24T13:38:50;22.70;53.50
30244;DHT22;64022;53.652;9.792;2023-04-24T13:41:16;22.70;53.50
30244;DHT22;64022;53.652;9.792;2023-04-24T13:43:41;22.70;53.50
30244;DHT22;64022;53.652;9.792;2023-04-24T13:46:08;22.70;53.50
30244;DHT22;64022;53.652;9.792;2023-04-24T13:48:34;22.70;53.50
30244;DHT22;64022;53.652;9.792;2023-04-24T13:50:59;22.70;53.50
30244;DHT22;64022;53.652;9.792;2023-04-24T13:53:25;22.70;53.50
30244;DHT22;64022;53.652;9.792;2023-04-24T13:55:50;22.70;53.50
30244;DHT22;64022;53.652;9.792;2023-04-24T13:58:16;22.70;53.50
30244;DHT22;64022;53.652;9.792;2023-04-24T14:00:41;22.70;53.50
30244;DHT22;64022;53.652;9.792;2023-04-24T14:03:07;22.70;53.50
30244;DHT22;64022;53.652;9.792;2023-04-24T14:05:33;22.70;53.50
30244;DHT22;64022;53.652;9.792;2023-04-24T14:07:58;22.70;53.50
30244;DHT22;64022;53.652;9.792;2023-04-24T14:10:24;22.70;53.50
30244;DHT22;64022;53.652;9.792;2023-04-24T14:12:50;22.70;53.50
30244;DHT22;64022;53.652;9.792;2023-04-24T14:15:16;22.70;53.50
30244;DHT22;64022;53.652;9.792;2023-04-24T14:17:42;22.70;53.60
30244;DHT22;64022;53.652;9.792;2023-04-24T14:20:08;22.70;53.50
30244;DHT22;64022;53.652;9.792;2023-04-24T14:22:34;22.70;53.50
30244;DHT22;64022;53.652;9.792;2023-04-24T14:24:59;22.70;53.50
30244;DHT22;64022;53.652;9.792;2023-04-24T14:27:26;22.70;53.60
30244;DHT22;64022;53.652;9.792;2023-04-24T14:29:52;22.70;53.60
30244;DHT22;64022;53.652;9.792;2023-04-24T14:32:18;22.70;53.60
30244;DHT22;64022;53.652;9.792;2023-04-24T14:34:43;22.70;53.60
30244;DHT22;64022;53.652;9.792;2023-04-24T14:37:09;22.70;53.60
30244;DHT22;64022;53.652;9.792;2023-04-24T14:39:34;22.70;53.60
30244;DHT22;64022;53.652;9.792;2023-04-24T14:42:00;22.70;53.60
30244;DHT22;64022;53.652;9.792;2023-04-24T14:44:26;22.70;53.60
30244;DHT22;64022;53.652;9.792;2023-04-24T14:46:52;22.70;54.20
30244;DHT22;64022;53.652;9.792;2023-04-24T14:49:18;22.70;53.60
30244;DHT22;64022;53.652;9.792;2023-04-24T14:51:44;22.70;53.70
30244;DHT22;64022;53.652;9.792;2023-04-24T14:54:09;22.70;53.70
30244;DHT22;64022;53.652;9.792;2023-04-24T14:56:35;22.70;53.70
30244;DHT22;64022;53.652;9.792;2023-04-24T14:59:01;22.70;53.70
30244;DHT22;64022;53.652;9.792;2023-04-24T15:01:26;22.70;53.70
30244;DHT22;64022;53.652;9.792;2023-04-24T15:03:52;22.70;53.70
30244;DHT22;64022;53.652;9.792;2023-04-24T15:06:17;22.70;53.70
30244;DHT22;64022;53.652;9.792;2023-04-24T15:08:43;22.70;53.70
30244;DHT22;64022;53.652;9.792;2023-04-24T15:11:09;22.70;53.80
30244;DHT22;64022;53.652;9.792;2023-04-24T15:13:35;22.70;53.80
30244;DHT22;64022;53.652;9.792;2023-04-24T15:16:01;22.70;53.80
30244;DHT22;64022;53.652;9.792;2023-04-24T15:18:27;22.70;53.80
30244;DHT22;64022;53.652;9.792;2023-04-24T15:20:54;22.70;53.80
30244;DHT22;64022;53.652;9.792;2023-04-24T15:23:20;22.70;53.80
30244;DHT22;64022;53.652;9.792;2023-04-24T15:25:45;22.70;53.80
30244;DHT22;64022;53.652;9.792;2023-04-24T15:28:11;22.70;53.80
30244;DHT22;64022;53.652;9.792;2023-04-24T15:30:37;22.70;53.80
30244;DHT22;64022;53.652;9.792;2023-04-24T15:33:03;22.70;53.90
30244;DHT22;64022;53.652;9.792;2023-04-24T15:35:28;22.70;53.90
30244;DHT22;64022;53.652;9.792;2023-04-24T15:37:54;22.70;53.90
30244;DHT22;64022;53.652;9.792;2023-04-24T15:40:20;22.70;53.90
30244;DHT22;64022;53.652;9.792;2023-04-24T15:42:46;22.70;53.90
30244;DHT22;64022;53.652;9.792;2023-04-24T15:45:11;22.70;53.90